Marvel — V7OZ3 — position and weather

sailwx.info

Track history (hours):
 
Tides and Currents Weather Stations Pressure Air Temp Water Temp Dewpoint Dewpoint Depression Visibility Wind Speed Wind Dir Waves Ship Positions

Marvel

Last reported at 2014-Sep-27 16:29 UTC. Time now 2014-Sep-30 17:55 UTC.
Position N 01°15' E 104°08'.

Length 183 m; draft 6.8 m.

Type: Tanker. MMSI: 538003191.

Date/timePositionNaut miles runAvg speedWind from/ knotsBaromVisibWave heightAir tempDewpointWater temp
2014-Sep-27 16:29N 01°15' E 104°08'8 8.5
2014-Sep-27 15:34N 01°14' E 104°00'9 8.8
2014-Sep-27 14:33N 01°11' E 103°52'9 9.1
2014-Sep-27 13:33N 01°06' E 103°45'8 8.0
2014-Sep-27 12:33N 01°04' E 103°37'7 6.7
2014-Sep-27 11:34N 01°11' E 103°35'8 7.6
2014-Sep-27 10:29N 01°10' E 103°43'0 0.0
2014-Sep-27 09:20N 01°10' E 103°43'0 0.0
2014-Sep-27 08:30N 01°10' E 103°43'0 0.0
2014-Sep-27 07:33N 01°10' E 103°43'0 0.0
2014-Sep-27 06:28N 01°10' E 103°43'0 0.1
2014-Sep-27 05:28N 01°10' E 103°43'0 0.0
2014-Sep-27 04:29N 01°10' E 103°43'0 0.0
2014-Sep-27 03:32N 01°10' E 103°43'0 0.1
2014-Sep-27 02:18N 01°10' E 103°43'0 0.1
2014-Sep-27 01:25N 01°10' E 103°43'0 0.0
2014-Sep-27 00:19N 01°10' E 103°43'0 0.0
2014-Sep-26 23:29N 01°10' E 103°43'0 0.0
2014-Sep-26 22:29N 01°10' E 103°43'0 0.0
2014-Sep-26 21:27N 01°10' E 103°43'0 0.0
2014-Sep-26 20:28N 01°10' E 103°43'0 0.1
2014-Sep-26 19:28N 01°10' E 103°43'0 0.1
2014-Sep-26 18:29N 01°10' E 103°43'0 0.0
2014-Sep-26 17:09N 01°10' E 103°43'0 0.0
2014-Sep-26 16:15N 01°10' E 103°43'0 0.3
2014-Sep-26 15:33N 01°10' E 103°43'0 0.1
2014-Sep-26 14:16N 01°10' E 103°43'0 0.0
2014-Sep-26 13:26N 01°10' E 103°43'0 0.1
2014-Sep-26 12:32N 01°10' E 103°43'0 0.1
2014-Sep-26 11:33N 01°10' E 103°43'0 0.1
2014-Sep-26 10:33N 01°10' E 103°43'0 0.1
2014-Sep-26 09:31N 01°10' E 103°43'0 0.1
2014-Sep-26 08:31N 01°10' E 103°43'4 4.2
2014-Sep-26 07:33N 01°12' E 103°40'5 4.6
2014-Sep-26 06:33N 01°12' E 103°35'5 5.1
2014-Sep-26 05:30N 01°09' E 103°30'  
Track history (hours):
 
Tides and Currents Weather Stations Pressure Air Temp Water Temp Dewpoint Dewpoint Depression Visibility Wind Speed Wind Dir Waves Ship Positions

Marvel

Last reported at 2014-Sep-27 16:29 UTC. Time now 2014-Sep-30 17:55 UTC.
Position N 01°15' E 104°08'.

Length 183 m; draft 6.8 m.

Type: Tanker. MMSI: 538003191.

Date/timePositionNaut miles runAvg speedWind from/ knotsBaromVisibWave heightAir tempDewpointWater temp
2014-Sep-27 16:29N 01°15' E 104°08'8 8.5
2014-Sep-27 15:34N 01°14' E 104°00'9 8.8
2014-Sep-27 14:33N 01°11' E 103°52'9 9.1
2014-Sep-27 13:33N 01°06' E 103°45'8 8.0
2014-Sep-27 12:33N 01°04' E 103°37'7 6.7
2014-Sep-27 11:34N 01°11' E 103°35'8 7.6
2014-Sep-27 10:29N 01°10' E 103°43'0 0.0
2014-Sep-27 09:20N 01°10' E 103°43'0 0.0
2014-Sep-27 08:30N 01°10' E 103°43'0 0.0
2014-Sep-27 07:33N 01°10' E 103°43'0 0.0
2014-Sep-27 06:28N 01°10' E 103°43'0 0.1
2014-Sep-27 05:28N 01°10' E 103°43'0 0.0
2014-Sep-27 04:29N 01°10' E 103°43'0 0.0
2014-Sep-27 03:32N 01°10' E 103°43'0 0.1
2014-Sep-27 02:18N 01°10' E 103°43'0 0.1
2014-Sep-27 01:25N 01°10' E 103°43'0 0.0
2014-Sep-27 00:19N 01°10' E 103°43'0 0.0
2014-Sep-26 23:29N 01°10' E 103°43'0 0.0
2014-Sep-26 22:29N 01°10' E 103°43'0 0.0
2014-Sep-26 21:27N 01°10' E 103°43'0 0.0
2014-Sep-26 20:28N 01°10' E 103°43'0 0.1
2014-Sep-26 19:28N 01°10' E 103°43'0 0.1
2014-Sep-26 18:29N 01°10' E 103°43'0 0.0
2014-Sep-26 17:09N 01°10' E 103°43'0 0.0
2014-Sep-26 16:15N 01°10' E 103°43'0 0.3
2014-Sep-26 15:33N 01°10' E 103°43'0 0.1
2014-Sep-26 14:16N 01°10' E 103°43'0 0.0
2014-Sep-26 13:26N 01°10' E 103°43'0 0.1
2014-Sep-26 12:32N 01°10' E 103°43'0 0.1
2014-Sep-26 11:33N 01°10' E 103°43'0 0.1
2014-Sep-26 10:33N 01°10' E 103°43'0 0.1
2014-Sep-26 09:31N 01°10' E 103°43'0 0.1
2014-Sep-26 08:31N 01°10' E 103°43'4 4.2
2014-Sep-26 07:33N 01°12' E 103°40'5 4.6
2014-Sep-26 06:33N 01°12' E 103°35'5 5.1
2014-Sep-26 05:30N 01°09' E 103°30'  

Dump ship's entire track history